Time;durP1;ratioP1;P1;durP2;ratioP2;P2;SDS_P1;SDS_P2;PMS_P1;PMS_P2;Temp;Humidity;BMP_temperature;BMP_pressure;BME280_temperature;BME280_humidity;BME280_pressure;Samples;Min_cycle;Max_cycle;Signal;HPM_P1;HPM_P2
2023/04/05 00:02:09;;;;;;;5.70;3.17;;;2.60;99.90;;;;;;5002252;28;20038;-76
2023/04/05 00:04:37;;;;;;;6.35;3.50;;;2.60;99.90;;;;;;5014970;28;20491;-76
2023/04/05 00:07:07;;;;;;;6.40;3.22;;;2.60;99.90;;;;;;5007431;28;20144;-77
2023/04/05 00:09:34;;;;;;;6.25;4.35;;;2.60;99.90;;;;;;5005100;28;20046;-76
2023/04/05 00:12:00;;;;;;;4.15;3.75;;;2.60;99.90;;;;;;5008866;28;20081;-76
2023/04/05 00:14:27;;;;;;;8.35;3.67;;;2.60;99.90;;;;;;5000156;28;20046;-76
2023/04/05 00:16:54;;;;;;;4.78;3.35;;;2.60;99.90;;;;;;5003001;28;20520;-76
2023/04/05 00:19:22;;;;;;;5.50;3.50;;;2.50;99.90;;;;;;4997990;28;20046;-76
2023/04/05 00:21:49;;;;;;;4.45;3.42;;;2.50;99.90;;;;;;5002008;28;20049;-76
2023/04/05 00:24:15;;;;;;;4.50;3.40;;;2.50;99.90;;;;;;4996042;28;20613;-76
2023/04/05 00:26:43;;;;;;;6.00;3.55;;;2.50;99.90;;;;;;5002918;28;20057;-76
2023/04/05 00:29:09;;;;;;;8.40;3.45;;;2.50;99.90;;;;;;4995730;28;20057;-76
2023/04/05 00:31:36;;;;;;;6.80;3.80;;;2.50;99.90;;;;;;5006671;28;20145;-75
2023/04/05 00:34:07;;;;;;;5.63;3.35;;;2.50;99.90;;;;;;5008164;28;20050;-77
2023/04/05 00:36:35;;;;;;;6.40;3.40;;;2.50;99.90;;;;;;5004864;28;20054;-77
2023/04/05 00:39:02;;;;;;;4.63;3.58;;;2.50;99.90;;;;;;5004737;28;20101;-77
2023/04/05 00:41:29;;;;;;;7.03;3.15;;;2.40;99.90;;;;;;4995824;28;20110;-76
2023/04/05 00:43:56;;;;;;;8.32;4.22;;;2.40;99.90;;;;;;5001818;28;20051;-76
2023/04/05 00:46:22;;;;;;;6.18;3.55;;;2.40;99.90;;;;;;5000871;28;20050;-76
2023/04/05 00:48:49;;;;;;;4.47;3.40;;;2.40;99.90;;;;;;5009259;28;20064;-76
2023/04/05 00:51:18;;;;;;;6.85;4.00;;;2.30;99.90;;;;;;5001050;28;20500;-77
2023/04/05 00:53:47;;;;;;;6.43;3.45;;;2.30;99.90;;;;;;5003547;28;20100;-76
2023/04/05 00:56:14;;;;;;;6.82;3.83;;;2.30;99.90;;;;;;5004245;28;20506;-76
2023/04/05 00:58:41;;;;;;;7.40;3.40;;;2.30;99.90;;;;;;5004366;28;20655;-76
2023/04/05 01:01:19;;;;;;;6.20;3.17;;;2.30;99.90;;;;;;5009474;28;20129;-76
2023/04/05 01:03:52;;;;;;;4.68;3.75;;;2.30;99.90;;;;;;5003895;28;20054;-76
2023/04/05 01:06:33;;;;;;;7.30;3.35;;;2.30;99.90;;;;;;4997792;28;20058;-76
2023/04/05 01:09:22;;;;;;;4.55;3.22;;;2.30;99.90;;;;;;5001836;28;20133;-76
2023/04/05 01:11:54;;;;;;;5.18;3.20;;;2.30;99.90;;;;;;5007372;28;20046;-76
2023/04/05 01:14:21;;;;;;;6.45;3.63;;;2.30;99.90;;;;;;4997665;28;20054;-76
2023/04/05 01:16:56;;;;;;;5.38;3.42;;;2.30;99.90;;;;;;4994360;28;20042;-76
2023/04/05 01:19:29;;;;;;;5.50;3.53;;;2.30;99.90;;;;;;5002235;28;20050;-75
2023/04/05 01:22:14;;;;;;;7.55;3.85;;;2.30;99.90;;;;;;5007347;28;20133;-76
2023/04/05 01:25:05;;;;;;;7.72;3.95;;;2.30;99.90;;;;;;5002132;28;20054;-75
2023/04/05 01:27:58;;;;;;;10.55;4.35;;;2.30;99.90;;;;;;5001414;28;20054;-76
2023/04/05 01:30:39;;;;;;;8.88;4.03;;;2.30;99.90;;;;;;4999720;28;20054;-76
2023/04/05 01:33:56;;;;;;;5.30;4.00;;;2.30;99.90;;;;;;5000801;28;20050;-76
2023/04/05 01:36:30;;;;;;;7.80;4.22;;;2.30;99.90;;;;;;4981878;28;20138;-76
2023/04/05 01:38:58;;;;;;;9.05;3.88;;;2.30;99.90;;;;;;4998548;28;20057;-76
2023/04/05 01:41:26;;;;;;;5.78;3.90;;;2.30;99.90;;;;;;4996925;28;20505;-76
2023/04/05 01:43:52;;;;;;;6.50;3.67;;;2.30;99.90;;;;;;5007091;28;20502;-76
2023/04/05 01:46:19;;;;;;;8.82;4.13;;;2.30;99.90;;;;;;5002963;28;20061;-76
2023/04/05 01:48:46;;;;;;;3.58;3.10;;;2.20;99.90;;;;;;5003243;28;20421;-76
2023/04/05 01:51:12;;;;;;;5.13;3.58;;;2.20;99.90;;;;;;5003801;28;20395;-76
2023/04/05 01:53:39;;;;;;;4.90;3.40;;;2.30;99.90;;;;;;4999765;28;20054;-76
2023/04/05 01:56:06;;;;;;;10.77;4.05;;;2.30;99.90;;;;;;5002460;28;20043;-76
2023/04/05 01:58:33;;;;;;;5.82;3.83;;;2.30;99.90;;;;;;4996819;28;20421;-76
2023/04/05 02:00:59;;;;;;;5.57;3.88;;;2.30;99.90;;;;;;5003828;28;20056;-75
2023/04/05 02:03:26;;;;;;;6.68;3.95;;;2.30;99.90;;;;;;4998607;28;20465;-76
2023/04/05 02:05:53;;;;;;;5.57;3.92;;;2.30;99.90;;;;;;5006160;28;20053;-76
2023/04/05 02:08:20;;;;;;;6.13;3.78;;;2.30;99.90;;;;;;4999017;28;20046;-76
2023/04/05 02:10:46;;;;;;;5.30;3.45;;;2.30;99.90;;;;;;5004682;28;20153;-76
2023/04/05 02:13:13;;;;;;;5.05;3.65;;;2.30;99.90;;;;;;5013074;28;20133;-76
2023/04/05 02:15:46;;;;;;;4.72;3.45;;;2.30;99.90;;;;;;5005662;28;20056;-76
2023/04/05 02:18:12;;;;;;;5.82;3.78;;;2.30;99.90;;;;;;5006752;28;20504;-76
2023/04/05 02:20:39;;;;;;;7.88;3.70;;;2.30;99.90;;;;;;5000861;28;20078;-76
2023/04/05 02:23:07;;;;;;;6.40;3.92;;;2.30;99.90;;;;;;5003075;28;20078;-76
2023/04/05 02:25:33;;;;;;;7.47;4.07;;;2.30;99.90;;;;;;5002472;28;20498;-77
2023/04/05 02:28:00;;;;;;;8.40;3.55;;;2.30;99.90;;;;;;5016348;28;20506;-77
2023/04/05 02:30:27;;;;;;;8.57;4.03;;;2.30;99.90;;;;;;5003812;28;20569;-76
2023/04/05 02:32:54;;;;;;;5.05;3.70;;;2.30;99.90;;;;;;5002577;28;20502;-76
2023/04/05 02:35:22;;;;;;;5.97;3.92;;;2.20;99.90;;;;;;5007958;28;20046;-76
2023/04/05 02:37:48;;;;;;;6.93;4.43;;;2.20;99.90;;;;;;5007174;28;20057;-77
2023/04/05 02:40:15;;;;;;;6.50;3.55;;;2.20;99.90;;;;;;5004738;28;20531;-76
2023/04/05 02:42:42;;;;;;;6.38;4.20;;;2.20;99.90;;;;;;5005635;28;20046;-77
2023/04/05 02:45:09;;;;;;;6.75;4.32;;;2.20;99.90;;;;;;5001620;28;20058;-77
2023/04/05 02:47:36;;;;;;;6.82;4.38;;;2.10;99.90;;;;;;5003398;28;20057;-76
2023/04/05 02:50:03;;;;;;;8.88;3.80;;;2.10;99.90;;;;;;4999568;28;20050;-76
2023/04/05 02:52:31;;;;;;;9.05;4.25;;;2.10;99.90;;;;;;5006091;28;20136;-77
2023/04/05 02:54:57;;;;;;;7.15;4.43;;;2.00;99.90;;;;;;4999962;28;20108;-77
2023/04/05 02:57:24;;;;;;;7.95;4.10;;;2.00;99.90;;;;;;5003738;28;20042;-76
2023/04/05 02:59:51;;;;;;;7.30;3.90;;;2.00;99.90;;;;;;5008199;28;20124;-76
2023/04/05 03:02:18;;;;;;;4.93;3.88;;;2.00;99.90;;;;;;5008382;28;20173;-77
2023/04/05 03:04:44;;;;;;;5.75;4.15;;;2.00;99.90;;;;;;5005434;28;20051;-76
2023/04/05 03:07:17;;;;;;;9.30;4.15;;;1.90;99.90;;;;;;5006088;28;20053;-76
2023/04/05 03:09:45;;;;;;;6.88;4.40;;;1.90;99.90;;;;;;5001502;28;20089;-76
2023/04/05 03:12:12;;;;;;;8.05;4.10;;;1.90;99.90;;;;;;5010334;28;20050;-77
2023/04/05 03:14:39;;;;;;;9.02;4.18;;;1.90;99.90;;;;;;4998409;28;20049;-76
2023/04/05 03:17:05;;;;;;;6.20;4.78;;;1.90;99.90;;;;;;5004392;28;20076;-77
2023/04/05 03:19:33;;;;;;;7.85;4.20;;;1.90;99.90;;;;;;4996769;28;20066;-77
2023/04/05 03:21:59;;;;;;;6.63;4.30;;;1.80;99.90;;;;;;5005737;28;20133;-77
2023/04/05 03:24:26;;;;;;;6.03;3.83;;;1.80;99.90;;;;;;5010872;28;20406;-76
2023/04/05 03:26:53;;;;;;;6.85;4.75;;;1.80;99.90;;;;;;5010072;28;20638;-76
2023/04/05 03:29:19;;;;;;;7.05;4.25;;;1.80;99.90;;;;;;5007903;28;20053;-76
2023/04/05 03:31:48;;;;;;;6.72;4.40;;;1.80;99.90;;;;;;5001445;28;20042;-77
2023/04/05 03:34:15;;;;;;;8.95;4.43;;;1.70;99.90;;;;;;5008414;28;20038;-76
2023/04/05 03:36:42;;;;;;;6.30;4.30;;;1.70;99.90;;;;;;5001259;28;20561;-76
2023/04/05 03:39:11;;;;;;;6.70;4.38;;;1.70;99.90;;;;;;5003993;28;20501;-77
2023/04/05 03:41:41;;;;;;;7.72;4.13;;;1.70;99.90;;;;;;5006779;28;20121;-76
2023/04/05 03:44:08;;;;;;;5.93;4.50;;;1.60;99.90;;;;;;5003914;28;20054;-76
2023/04/05 03:46:36;;;;;;;5.53;4.38;;;1.60;99.90;;;;;;5000930;28;20042;-77
2023/04/05 03:49:04;;;;;;;8.40;4.18;;;1.60;99.90;;;;;;5006024;28;20050;-76
2023/04/05 03:51:32;;;;;;;7.60;4.75;;;1.50;99.90;;;;;;5004847;28;20125;-76
2023/04/05 03:53:59;;;;;;;7.47;4.60;;;1.60;99.90;;;;;;5005351;28;20058;-77
2023/04/05 03:56:26;;;;;;;8.07;5.13;;;1.50;99.90;;;;;;5001970;28;20425;-76
2023/04/05 03:58:52;;;;;;;9.30;4.28;;;1.50;99.90;;;;;;5003401;28;20038;-76
2023/04/05 04:01:19;;;;;;;6.22;4.38;;;1.50;99.90;;;;;;4999111;28;20053;-77
2023/04/05 04:03:46;;;;;;;6.10;4.18;;;1.50;99.90;;;;;;5004335;28;20047;-76
2023/04/05 04:06:13;;;;;;;6.93;4.97;;;1.40;99.90;;;;;;4997111;28;20162;-77
2023/04/05 04:08:43;;;;;;;9.18;4.70;;;1.40;99.90;;;;;;5003732;28;20528;-77
2023/04/05 04:11:10;;;;;;;9.80;5.32;;;1.40;99.90;;;;;;4995939;28;20050;-77
2023/04/05 04:13:37;;;;;;;11.00;5.78;;;1.40;99.90;;;;;;5001976;28;20417;-77
2023/04/05 04:16:04;;;;;;;9.48;5.10;;;1.30;99.90;;;;;;5007801;28;20085;-77
2023/04/05 04:18:31;;;;;;;9.30;5.75;;;1.30;99.90;;;;;;5001295;28;20129;-77
2023/04/05 04:21:05;;;;;;;6.50;4.80;;;1.30;99.90;;;;;;5003620;28;20038;-77
2023/04/05 04:23:38;;;;;;;8.90;5.40;;;1.30;99.90;;;;;;5007635;28;20042;-77
2023/04/05 04:26:05;;;;;;;6.68;4.82;;;1.30;99.90;;;;;;5002827;28;20052;-77
2023/04/05 04:28:37;;;;;;;7.22;5.05;;;1.30;99.90;;;;;;5000416;28;20050;-77
2023/04/05 04:31:08;;;;;;;10.85;5.20;;;1.30;99.90;;;;;;4997672;28;20129;-77
2023/04/05 04:33:34;;;;;;;10.15;5.50;;;1.30;99.90;;;;;;5000827;28;20089;-77
2023/04/05 04:36:06;;;;;;;7.72;5.47;;;1.20;99.90;;;;;;5000598;28;20046;-76
2023/04/05 04:38:33;;;;;;;5.97;4.70;;;1.20;99.90;;;;;;5005657;28;20053;-77
2023/04/05 04:41:05;;;;;;;9.00;5.35;;;1.20;99.90;;;;;;5005789;28;20046;-77
2023/04/05 04:43:36;;;;;;;10.40;5.07;;;1.20;99.90;;;;;;5002431;28;20089;-77
2023/04/05 04:46:09;;;;;;;7.25;5.57;;;1.20;99.90;;;;;;5003620;28;20105;-77
2023/04/05 04:48:40;;;;;;;9.35;5.00;;;1.20;99.90;;;;;;4998687;28;20058;-77
2023/04/05 04:51:08;;;;;;;11.73;5.38;;;1.10;99.90;;;;;;5001803;28;20125;-76
2023/04/05 04:53:34;;;;;;;7.72;4.80;;;1.10;99.90;;;;;;4995767;28;20057;-76
2023/04/05 04:56:06;;;;;;;13.93;5.68;;;1.10;99.90;;;;;;5001999;28;20052;-76
2023/04/05 04:58:33;;;;;;;6.75;4.97;;;1.10;99.90;;;;;;5006946;28;20058;-77
2023/04/05 05:01:00;;;;;;;7.43;4.70;;;1.10;99.90;;;;;;5005257;28;20054;-76
2023/04/05 05:03:27;;;;;;;8.48;5.15;;;1.00;99.90;;;;;;5009460;28;20041;-77
2023/04/05 05:05:53;;;;;;;7.22;4.95;;;1.00;99.90;;;;;;5003879;28;20050;-77
2023/04/05 05:08:20;;;;;;;7.13;5.15;;;1.00;99.90;;;;;;5009896;28;20074;-77
2023/04/05 05:10:52;;;;;;;7.03;4.68;;;1.00;99.90;;;;;;4998537;28;20489;-77
2023/04/05 05:13:19;;;;;;;8.63;4.65;;;1.00;99.90;;;;;;5003235;28;20053;-76
2023/04/05 05:15:47;;;;;;;14.63;7.30;;;1.10;99.90;;;;;;4998487;28;20042;-76
2023/04/05 05:18:14;;;;;;;11.93;6.28;;;1.00;99.90;;;;;;4999246;28;20069;-76
2023/04/05 05:20:41;;;;;;;15.77;7.03;;;1.00;99.90;;;;;;4998037;28;20097;-76
2023/04/05 05:23:08;;;;;;;13.60;7.85;;;1.00;99.90;;;;;;5015703;28;20536;-76
2023/04/05 05:25:35;;;;;;;14.90;8.27;;;1.10;99.90;;;;;;5001592;28;20074;-75
2023/04/05 05:28:04;;;;;;;12.30;6.50;;;1.00;99.90;;;;;;5004349;28;20425;-75
2023/04/05 05:30:32;;;;;;;12.45;5.80;;;1.10;99.90;;;;;;5003142;28;20046;-76
2023/04/05 05:33:00;;;;;;;8.35;6.18;;;1.10;99.90;;;;;;5003816;28;20057;-75
2023/04/05 05:35:26;;;;;;;8.10;5.20;;;1.10;99.90;;;;;;5000933;28;20077;-76
2023/04/05 05:37:53;;;;;;;12.07;6.35;;;1.00;99.90;;;;;;5006129;28;20126;-76
2023/04/05 05:40:20;;;;;;;7.55;5.82;;;1.00;99.90;;;;;;5001132;28;20496;-75
2023/04/05 05:42:46;;;;;;;9.80;5.38;;;1.00;99.90;;;;;;5005930;28;20153;-76
2023/04/05 05:45:13;;;;;;;11.52;6.40;;;1.00;99.90;;;;;;4999687;28;20057;-76
2023/04/05 05:47:41;;;;;;;8.57;6.22;;;1.00;99.90;;;;;;5011897;28;20062;-75
2023/04/05 05:50:08;;;;;;;8.27;5.72;;;1.10;99.90;;;;;;5000786;28;20557;-76
2023/04/05 05:52:35;;;;;;;9.48;5.88;;;1.10;99.90;;;;;;5009737;28;20046;-76
2023/04/05 05:55:03;;;;;;;8.32;5.65;;;1.10;99.90;;;;;;5008541;28;20516;-75
2023/04/05 05:57:29;;;;;;;11.23;5.78;;;1.10;99.90;;;;;;5007603;28;20042;-76
2023/04/05 05:59:56;;;;;;;12.35;7.18;;;1.10;99.90;;;;;;5004346;28;20042;-75
2023/04/05 06:02:23;;;;;;;9.10;5.95;;;1.10;99.90;;;;;;5004488;28;20053;-76
2023/04/05 06:04:49;;;;;;;11.23;7.35;;;1.10;99.90;;;;;;5000308;28;20093;-76
2023/04/05 06:07:16;;;;;;;10.52;6.22;;;1.20;99.90;;;;;;5005039;28;20050;-77
2023/04/05 06:09:44;;;;;;;9.52;6.00;;;1.20;99.90;;;;;;4997983;28;20046;-76
2023/04/05 06:12:10;;;;;;;10.43;6.38;;;1.20;99.90;;;;;;5005294;28;20122;-76
2023/04/05 06:14:37;;;;;;;11.23;5.95;;;1.20;99.90;;;;;;5009763;28;20046;-76
2023/04/05 06:17:04;;;;;;;11.38;6.60;;;1.30;99.90;;;;;;5011973;28;20049;-75
2023/04/05 06:19:30;;;;;;;7.90;6.13;;;1.30;99.90;;;;;;5010059;28;20482;-75
2023/04/05 06:21:59;;;;;;;8.68;6.28;;;1.30;99.90;;;;;;5002733;28;20046;-75
2023/04/05 06:24:30;;;;;;;9.90;6.75;;;1.30;99.90;;;;;;5007803;28;20042;-75
2023/04/05 06:26:58;;;;;;;9.75;6.60;;;1.40;99.90;;;;;;5000375;28;20077;-76
2023/04/05 06:29:24;;;;;;;11.85;7.30;;;1.40;99.90;;;;;;5004711;28;20519;-76
2023/04/05 06:31:51;;;;;;;10.27;6.45;;;1.40;99.90;;;;;;5001367;28;20042;-76
2023/04/05 06:34:18;;;;;;;10.80;6.88;;;1.50;99.90;;;;;;5004310;28;20534;-75
2023/04/05 06:36:45;;;;;;;10.43;6.85;;;1.50;99.90;;;;;;5000803;28;20498;-75
2023/04/05 06:39:13;;;;;;;18.08;8.10;;;1.50;99.90;;;;;;5001968;28;20041;-75
2023/04/05 06:41:40;;;;;;;10.82;7.20;;;1.50;99.90;;;;;;5008110;28;20084;-76
2023/04/05 06:44:07;;;;;;;13.13;7.38;;;1.60;99.90;;;;;;5008603;28;20043;-77
2023/04/05 06:46:34;;;;;;;10.02;6.88;;;1.60;99.90;;;;;;5004562;28;20421;-76
2023/04/05 06:49:00;;;;;;;11.60;7.78;;;1.70;99.90;;;;;;5005665;28;20080;-76
2023/04/05 06:51:30;;;;;;;9.27;7.03;;;1.70;99.90;;;;;;5000738;28;20050;-76
2023/04/05 06:53:57;;;;;;;8.52;5.82;;;1.70;99.90;;;;;;5003422;28;20421;-76
2023/04/05 06:56:23;;;;;;;8.52;5.65;;;1.80;99.90;;;;;;4997100;28;20426;-76
2023/04/05 06:58:50;;;;;;;13.50;6.72;;;1.80;99.90;;;;;;5002250;28;20074;-76
2023/04/05 07:01:17;;;;;;;7.15;5.85;;;1.80;99.90;;;;;;4998770;28;20413;-76
2023/04/05 07:03:44;;;;;;;10.60;7.15;;;1.90;99.90;;;;;;5003990;28;20075;-75
2023/04/05 07:06:11;;;;;;;11.32;6.85;;;1.90;99.90;;;;;;5006934;28;20045;-76
2023/04/05 07:08:38;;;;;;;10.05;6.63;;;1.90;99.90;;;;;;5021443;23;20548;-85
2023/04/05 07:11:05;;;;;;;12.07;8.48;;;1.90;99.90;;;;;;5013696;28;20046;-83
2023/04/05 07:13:31;;;;;;;13.20;9.35;;;2.00;99.90;;;;;;5013444;28;20042;-83
2023/04/05 07:16:00;;;;;;;14.77;9.18;;;2.00;99.90;;;;;;5016907;28;20045;-84
2023/04/05 07:18:28;;;;;;;19.17;10.05;;;2.10;99.90;;;;;;5011006;28;20046;-85
2023/04/05 07:21:00;;;;;;;20.52;9.35;;;2.10;99.90;;;;;;4999644;28;20074;-82
2023/04/05 07:23:28;;;;;;;13.77;9.45;;;2.10;99.90;;;;;;4999480;28;20057;-81
2023/04/05 07:26:01;;;;;;;15.90;9.65;;;2.10;99.90;;;;;;5005703;28;20042;-80
2023/04/05 07:28:29;;;;;;;20.70;10.90;;;2.10;99.90;;;;;;5012408;28;20054;-81
2023/04/05 07:31:00;;;;;;;16.85;10.45;;;2.10;99.90;;;;;;5000266;28;20069;-82
2023/04/05 07:33:27;;;;;;;13.50;9.77;;;2.10;99.90;;;;;;4998669;28;20070;-80
2023/04/05 07:35:55;;;;;;;15.27;9.80;;;2.20;99.90;;;;;;5002808;28;20062;-78
2023/04/05 07:38:22;;;;;;;16.08;10.05;;;2.20;99.90;;;;;;4998752;28;20046;-82
2023/04/05 07:40:50;;;;;;;15.82;9.20;;;2.20;99.90;;;;;;4994556;28;20074;-79
2023/04/05 07:43:20;;;;;;;12.55;9.15;;;2.30;99.90;;;;;;5005213;28;20054;-82
2023/04/05 07:45:51;;;;;;;17.90;9.43;;;2.30;99.90;;;;;;5001221;28;20105;-83
2023/04/05 07:48:19;;;;;;;11.50;9.57;;;2.40;99.90;;;;;;5001148;28;20494;-82
2023/04/05 07:50:48;;;;;;;14.93;9.20;;;2.40;99.90;;;;;;4994292;28;20192;-82
2023/04/05 07:53:14;;;;;;;11.57;9.45;;;2.40;99.90;;;;;;5003320;28;20065;-83
2023/04/05 07:55:42;;;;;;;14.15;9.52;;;2.50;99.90;;;;;;4999184;28;20491;-84
2023/04/05 07:58:09;;;;;;;13.27;9.23;;;2.60;99.90;;;;;;5000848;28;20062;-79
2023/04/05 08:00:37;;;;;;;12.98;8.40;;;2.60;99.90;;;;;;4998628;28;20054;-82
2023/04/05 08:03:05;;;;;;;10.57;7.70;;;2.60;99.90;;;;;;4998947;28;20042;-82
2023/04/05 08:05:32;;;;;;;13.00;7.78;;;2.70;99.90;;;;;;5001177;28;20054;-84
2023/04/05 08:07:59;;;;;;;12.52;8.32;;;2.70;99.90;;;;;;5000344;28;20057;-83
2023/04/05 08:10:26;;;;;;;12.27;8.32;;;2.70;99.90;;;;;;4998179;28;20466;-83
2023/04/05 08:12:53;;;;;;;15.15;8.65;;;2.80;99.90;;;;;;5005848;28;20046;-82
2023/04/05 08:15:21;;;;;;;12.98;8.68;;;2.80;99.90;;;;;;4996946;28;20098;-84
2023/04/05 08:17:47;;;;;;;10.20;7.45;;;2.90;99.90;;;;;;5007622;28;20043;-83
2023/04/05 08:20:15;;;;;;;10.85;7.28;;;2.90;99.90;;;;;;4997350;28;20118;-84
2023/04/05 08:22:42;;;;;;;12.60;8.07;;;2.90;99.90;;;;;;4997157;28;20050;-83
2023/04/05 08:25:09;;;;;;;10.85;8.00;;;2.90;99.90;;;;;;5002803;28;20069;-83
2023/04/05 08:27:36;;;;;;;13.63;8.73;;;3.00;99.90;;;;;;5003582;28;20054;-82
2023/04/05 08:30:04;;;;;;;11.75;8.45;;;3.10;99.90;;;;;;5000374;28;20077;-81
2023/04/05 08:32:32;;;;;;;16.73;8.50;;;3.10;99.90;;;;;;5000162;28;20054;-82
2023/04/05 08:34:59;;;;;;;13.48;7.20;;;3.20;99.90;;;;;;5000105;28;20046;-82
2023/04/05 08:37:26;;;;;;;12.35;7.72;;;3.20;99.90;;;;;;4995321;28;20058;-84
2023/04/05 08:39:53;;;;;;;11.88;8.35;;;3.30;99.90;;;;;;5001995;28;20057;-83
2023/04/05 08:42:41;;;;;;;12.05;7.80;;;3.30;99.90;;;;;;4999288;28;20050;-83
2023/04/05 08:45:10;;;;;;;13.18;8.15;;;3.40;99.90;;;;;;5003566;28;20050;-84
2023/04/05 08:47:40;;;;;;;13.30;7.22;;;3.40;99.90;;;;;;4999995;28;20042;-83
2023/04/05 08:50:09;;;;;;;;;;;3.50;99.90;;;;;;4994607;28;20106;-84
2023/04/05 08:52:38;;;;;;;12.88;8.73;;;3.50;99.90;;;;;;5000598;28;20001;-84
2023/04/05 08:55:05;;;;;;;16.15;9.57;;;3.60;99.90;;;;;;5002086;28;20055;-83
2023/04/05 08:57:38;;;;;;;9.07;6.57;;;3.60;99.90;;;;;;5000475;28;20106;-83
2023/04/05 09:00:07;;;;;;;10.68;5.80;;;3.70;99.90;;;;;;4999855;28;20050;-83
2023/04/05 09:02:35;;;;;;;11.93;6.10;;;3.70;99.90;;;;;;4984596;28;20082;-85
2023/04/05 09:05:08;;;;;;;9.60;5.57;;;3.80;99.90;;;;;;5003804;28;20058;-83
2023/04/05 09:07:42;;;;;;;8.80;5.53;;;3.80;99.90;;;;;;5001419;28;20106;-84
2023/04/05 09:10:12;;;;;;;10.65;6.25;;;3.90;99.90;;;;;;5003927;28;20050;-84
2023/04/05 09:12:50;;;;;;;8.23;5.50;;;3.90;99.90;;;;;;5003624;28;20053;-84
2023/04/05 09:15:31;;;;;;;8.45;5.97;;;4.00;99.90;;;;;;5004565;28;20054;-84
2023/04/05 09:18:10;;;;;;;14.82;6.00;;;4.00;99.90;;;;;;5002195;28;20108;-81
2023/04/05 09:21:10;;;;;;;9.93;6.53;;;4.10;99.90;;;;;;5000990;28;20049;-81
2023/04/05 09:24:03;;;;;;;;;;;4.10;99.90;;;;;;5003261;28;20042;-83
2023/04/05 09:26:41;;;;;;;8.95;5.45;;;4.20;99.90;;;;;;5002422;28;19932;-83
2023/04/05 09:29:32;;;;;;;14.30;6.03;;;4.20;99.90;;;;;;4997686;28;20051;-82
2023/04/05 09:32:06;;;;;;;9.93;6.10;;;4.30;99.90;;;;;;4998944;28;20069;-80
2023/04/05 09:35:06;;;;;;;;;;;;;;;;;;;;;
2023/04/05 09:38:06;;;;;;;8.85;5.82;;;4.40;99.90;;;;;;5000497;28;20058;-82
2023/04/05 09:40:54;;;;;;;12.25;6.05;;;4.50;99.90;;;;;;5010457;28;20047;-81
2023/04/05 09:43:42;;;;;;;11.23;5.97;;;4.50;99.90;;;;;;4998493;28;20046;-84
2023/04/05 09:46:40;;;;;;;8.73;5.85;;;4.60;99.90;;;;;;4995648;28;20554;-84
2023/04/05 09:49:09;;;;;;;8.73;5.90;;;4.60;99.90;;;;;;5005678;28;20050;-84
2023/04/05 09:51:45;;;;;;;10.15;5.70;;;4.70;99.90;;;;;;5005690;28;20050;-81
2023/04/05 09:54:15;;;;;;;9.05;5.22;;;4.70;99.90;;;;;;5002393;28;20046;-83
2023/04/05 09:56:56;;;;;;;7.97;5.50;;;4.80;99.90;;;;;;5002377;28;20046;-83
2023/04/05 09:59:23;;;;;;;9.70;5.95;;;4.90;99.90;;;;;;4997899;28;20046;-81
2023/04/05 10:01:50;;;;;;;11.40;5.68;;;4.90;99.90;;;;;;4998509;28;20059;-83
2023/04/05 10:04:21;;;;;;;10.15;5.43;;;4.90;99.90;;;;;;5003310;28;20078;-80
2023/04/05 10:06:49;;;;;;;7.10;4.68;;;5.00;99.90;;;;;;5005556;28;20046;-83
2023/04/05 10:09:18;;;;;;;10.65;5.60;;;5.00;99.90;;;;;;4996394;28;20060;-83
2023/04/05 10:11:45;;;;;;;10.18;5.10;;;5.10;99.90;;;;;;5002450;28;20077;-81
2023/04/05 10:14:11;;;;;;;10.55;5.85;;;5.10;99.90;;;;;;5000203;28;20078;-84
2023/04/05 10:17:09;;;;;;;11.10;6.32;;;5.20;99.90;;;;;;4999114;28;20105;-83
2023/04/05 10:20:04;;;;;;;8.52;5.97;;;5.30;99.90;;;;;;5010411;28;20051;-82
2023/04/05 10:23:05;;;;;;;6.72;4.75;;;5.30;99.90;;;;;;4993815;28;20039;-82
2023/04/05 10:25:50;;;;;;;7.53;4.85;;;5.40;99.90;;;;;;5002723;28;20046;-83
2023/04/05 10:28:46;;;;;;;6.88;4.47;;;5.40;99.90;;;;;;4998803;28;20055;-84
2023/04/05 10:31:22;;;;;;;10.38;4.80;;;5.50;99.90;;;;;;5020980;28;20514;-81
2023/04/05 10:34:05;;;;;;;7.00;4.65;;;5.60;99.90;;;;;;4994150;28;20569;-83
2023/04/05 10:36:48;;;;;;;6.97;4.63;;;5.70;99.90;;;;;;4997533;28;20138;-84
2023/04/05 10:39:25;;;;;;;11.60;4.88;;;5.70;99.90;;;;;;4993505;28;20050;-84
2023/04/05 10:42:10;;;;;;;7.30;4.32;;;5.70;99.90;;;;;;4993816;28;20042;-82
2023/04/05 10:44:39;;;;;;;6.60;4.20;;;5.80;99.90;;;;;;4989948;28;20045;-84
2023/04/05 10:47:08;;;;;;;9.00;5.27;;;5.80;99.90;;;;;;5001481;28;20114;-81
2023/04/05 10:49:39;;;;;;;10.73;4.82;;;5.90;99.90;;;;;;5003683;28;20145;-80
2023/04/05 10:52:05;;;;;;;;;;;5.90;99.90;;;;;;5009483;28;20046;-79
2023/04/05 10:54:35;;;;;;;7.90;4.72;;;6.00;99.90;;;;;;5000655;28;19922;-80
2023/04/05 10:57:05;;;;;;;7.68;4.90;;;6.00;99.90;;;;;;4998189;28;20047;-85
2023/04/05 10:59:40;;;;;;;8.95;4.93;;;6.10;99.90;;;;;;5002177;28;20050;-85
2023/04/05 11:02:08;;;;;;;8.57;5.05;;;6.20;99.90;;;;;;5000592;28;20077;-83
2023/04/05 11:04:35;;;;;;;8.68;6.05;;;6.20;99.90;;;;;;5001969;28;20165;-85
2023/04/05 11:07:12;;;;;;;6.70;5.00;;;6.20;99.90;;;;;;4983452;28;20486;-83
2023/04/05 11:10:02;;;;;;;5.70;4.60;;;6.20;99.90;;;;;;4999410;28;20067;-81
2023/04/05 11:12:45;;;;;;;6.65;5.13;;;6.30;99.90;;;;;;5002679;28;20088;-84
2023/04/05 11:15:27;;;;;;;8.40;5.25;;;6.40;99.90;;;;;;5013782;28;20043;-83
2023/04/05 11:18:16;;;;;;;8.05;5.13;;;6.40;99.90;;;;;;5013168;28;20132;-84
2023/04/05 11:21:04;;;;;;;6.60;4.97;;;6.40;99.90;;;;;;5004636;28;20054;-84
2023/04/05 11:23:30;;;;;;;7.20;5.18;;;6.50;99.90;;;;;;5000377;28;20042;-85
2023/04/05 11:26:06;;;;;;;7.53;4.75;;;6.60;99.90;;;;;;5002804;28;20039;-83
2023/04/05 11:28:39;;;;;;;6.63;4.82;;;6.60;99.90;;;;;;5001789;28;20051;-82
2023/04/05 11:31:17;;;;;;;7.53;5.22;;;6.60;99.90;;;;;;4998675;28;20053;-83
2023/04/05 11:33:45;;;;;;;7.40;5.35;;;6.70;99.90;;;;;;4998983;28;20070;-84
2023/04/05 11:36:37;;;;;;;8.85;5.70;;;6.70;99.90;;;;;;4999783;28;20075;-83
2023/04/05 11:39:17;;;;;;;7.90;5.40;;;6.70;99.90;;;;;;4993886;28;20051;-83
2023/04/05 11:42:04;;;;;;;8.05;5.40;;;6.70;99.90;;;;;;5001461;28;20049;-84
2023/04/05 11:44:46;;;;;;;6.07;4.95;;;6.90;99.90;;;;;;4999030;28;20061;-83
2023/04/05 11:47:17;;;;;;;6.78;5.32;;;6.90;99.90;;;;;;4998401;28;20061;-84
2023/04/05 11:49:47;;;;;;;;;;;7.00;99.90;;;;;;5004465;28;20054;-81
2023/04/05 11:52:17;;;;;;;8.55;5.05;;;7.00;99.90;;;;;;5005138;28;19921;-83
2023/04/05 11:54:48;;;;;;;8.77;5.10;;;7.00;99.90;;;;;;5006645;28;20070;-85
2023/04/05 11:57:22;;;;;;;9.10;6.07;;;7.10;99.90;;;;;;4996689;28;20051;-83
2023/04/05 11:59:50;;;;;;;9.18;4.95;;;7.10;99.90;;;;;;5003173;28;20046;-83
2023/04/05 12:02:18;;;;;;;9.00;5.32;;;7.10;99.90;;;;;;4998608;28;20422;-85
2023/04/05 12:04:58;;;;;;;7.80;5.00;;;7.10;99.90;;;;;;4998188;28;20084;-82
2023/04/05 12:07:35;;;;;;;5.82;4.55;;;7.10;99.90;;;;;;4997544;28;20055;-81
2023/04/05 12:10:04;;;;;;;7.07;4.60;;;7.20;99.90;;;;;;4994321;28;20081;-84
2023/04/05 12:12:42;;;;;;;11.70;5.72;;;7.20;99.90;;;;;;5003496;28;20399;-83
2023/04/05 12:15:13;;;;;;;8.00;5.25;;;7.20;99.90;;;;;;4996478;28;20519;-84
2023/04/05 12:17:45;;;;;;;20.08;7.10;;;7.30;99.90;;;;;;4995723;28;20054;-83
2023/04/05 12:20:14;;;;;;;8.45;5.05;;;7.40;99.90;;;;;;4995600;28;20049;-83
2023/04/05 12:22:43;;;;;;;11.25;7.18;;;7.40;99.90;;;;;;4998221;28;20055;-84
2023/04/05 12:25:11;;;;;;;7.10;5.10;;;7.40;99.90;;;;;;5006199;28;20050;-85
2023/04/05 12:27:39;;;;;;;8.75;4.88;;;7.50;99.90;;;;;;4996077;28;20054;-83
2023/04/05 12:30:07;;;;;;;8.77;5.30;;;7.60;99.90;;;;;;4996100;28;20082;-83
2023/04/05 12:33:06;;;;;;;8.15;5.13;;;7.60;99.90;;;;;;4999878;28;20054;-83
2023/04/05 12:35:34;;;;;;;8.45;5.80;;;7.60;99.90;;;;;;4997517;28;20078;-84
2023/04/05 12:38:02;;;;;;;7.35;5.65;;;7.70;99.90;;;;;;4996465;28;20130;-82
2023/04/05 12:40:29;;;;;;;7.53;5.55;;;7.70;99.90;;;;;;4995607;28;20047;-83
2023/04/05 12:43:03;;;;;;;8.20;5.90;;;7.80;99.90;;;;;;5003992;28;20482;-83
2023/04/05 12:45:38;;;;;;;8.88;5.70;;;7.80;99.90;;;;;;4989337;28;20065;-83
2023/04/05 12:48:14;;;;;;;6.65;5.10;;;7.90;99.90;;;;;;4998760;28;20541;-82
2023/04/05 12:50:45;;;;;;;6.65;4.80;;;8.00;99.90;;;;;;4998891;28;20066;-83
2023/04/05 12:53:22;;;;;;;6.88;4.93;;;8.10;99.90;;;;;;5002485;28;20054;-83
2023/04/05 12:55:54;;;;;;;10.85;5.40;;;8.10;99.90;;;;;;4999887;28;20077;-82
2023/04/05 12:58:33;;;;;;;6.68;4.90;;;8.10;99.90;;;;;;5004615;28;20077;-84
2023/04/05 13:01:00;;;;;;;7.10;5.47;;;8.10;99.90;;;;;;4995419;28;20110;-84
2023/04/05 13:03:27;;;;;;;7.82;5.40;;;8.20;99.90;;;;;;5003684;28;20043;-83
2023/04/05 13:05:54;;;;;;;6.82;5.22;;;8.20;99.90;;;;;;5000445;28;20106;-83
2023/04/05 13:08:21;;;;;;;14.40;6.50;;;8.20;99.90;;;;;;4992382;28;20055;-83
2023/04/05 13:10:49;;;;;;;8.93;5.07;;;8.20;99.90;;;;;;5029237;23;20042;-79
2023/04/05 13:13:16;;;;;;;12.15;5.75;;;8.20;99.90;;;;;;5013648;28;20053;-80
2023/04/05 13:15:44;;;;;;;9.07;5.63;;;8.20;99.90;;;;;;5012167;28;20045;-79